sensor_id;sensor_type;location;lat;lon;timestamp;P1;durP1;ratioP1;P2;durP2;ratioP2
24813;SDS011;12904;50.088;11.414;2024-03-08T00:01:09;29.88;;;15.90;;
24813;SDS011;12904;50.088;11.414;2024-03-08T00:03:35;29.13;;;15.05;;
24813;SDS011;12904;50.088;11.414;2024-03-08T00:06:00;31.35;;;15.50;;
24813;SDS011;12904;50.088;11.414;2024-03-08T00:08:26;28.77;;;15.15;;
24813;SDS011;12904;50.088;11.414;2024-03-08T00:10:52;32.58;;;16.55;;
24813;SDS011;12904;50.088;11.414;2024-03-08T00:13:18;29.77;;;15.30;;
24813;SDS011;12904;50.088;11.414;2024-03-08T00:15:43;31.85;;;15.65;;
24813;SDS011;12904;50.088;11.414;2024-03-08T00:18:09;25.38;;;13.82;;
24813;SDS011;12904;50.088;11.414;2024-03-08T00:20:36;34.55;;;16.98;;
24813;SDS011;12904;50.088;11.414;2024-03-08T00:23:02;30.73;;;14.88;;
24813;SDS011;12904;50.088;11.414;2024-03-08T00:25:28;30.60;;;15.80;;
24813;SDS011;12904;50.088;11.414;2024-03-08T00:27:53;37.13;;;15.93;;
24813;SDS011;12904;50.088;11.414;2024-03-08T00:30:22;32.75;;;16.35;;
24813;SDS011;12904;50.088;11.414;2024-03-08T00:32:48;32.72;;;15.10;;
24813;SDS011;12904;50.088;11.414;2024-03-08T00:35:14;32.63;;;15.60;;
24813;SDS011;12904;50.088;11.414;2024-03-08T00:37:40;31.08;;;14.88;;
24813;SDS011;12904;50.088;11.414;2024-03-08T00:40:11;29.20;;;15.18;;
24813;SDS011;12904;50.088;11.414;2024-03-08T00:42:37;31.75;;;15.90;;
24813;SDS011;12904;50.088;11.414;2024-03-08T00:45:05;23.48;;;13.95;;
24813;SDS011;12904;50.088;11.414;2024-03-08T00:47:30;27.77;;;14.50;;
24813;SDS011;12904;50.088;11.414;2024-03-08T00:49:56;27.73;;;15.25;;
24813;SDS011;12904;50.088;11.414;2024-03-08T00:52:22;27.25;;;14.60;;
24813;SDS011;12904;50.088;11.414;2024-03-08T00:54:49;29.95;;;15.05;;
24813;SDS011;12904;50.088;11.414;2024-03-08T00:57:14;23.77;;;14.43;;
24813;SDS011;12904;50.088;11.414;2024-03-08T00:59:40;33.60;;;16.23;;
24813;SDS011;12904;50.088;11.414;2024-03-08T01:02:06;30.98;;;15.15;;
24813;SDS011;12904;50.088;11.414;2024-03-08T01:04:34;27.63;;;15.75;;
24813;SDS011;12904;50.088;11.414;2024-03-08T01:07:00;23.90;;;14.18;;
24813;SDS011;12904;50.088;11.414;2024-03-08T01:09:26;25.38;;;14.85;;
24813;SDS011;12904;50.088;11.414;2024-03-08T01:11:55;30.25;;;13.93;;
24813;SDS011;12904;50.088;11.414;2024-03-08T01:14:21;22.30;;;13.88;;
24813;SDS011;12904;50.088;11.414;2024-03-08T01:16:47;22.67;;;13.52;;
24813;SDS011;12904;50.088;11.414;2024-03-08T01:19:14;23.90;;;14.00;;
24813;SDS011;12904;50.088;11.414;2024-03-08T01:21:40;24.13;;;14.93;;
24813;SDS011;12904;50.088;11.414;2024-03-08T01:24:06;26.63;;;14.35;;
24813;SDS011;12904;50.088;11.414;2024-03-08T01:26:31;25.00;;;13.73;;
24813;SDS011;12904;50.088;11.414;2024-03-08T01:28:59;24.52;;;14.70;;
24813;SDS011;12904;50.088;11.414;2024-03-08T01:31:25;28.80;;;14.73;;
24813;SDS011;12904;50.088;11.414;2024-03-08T01:33:50;30.52;;;13.55;;
24813;SDS011;12904;50.088;11.414;2024-03-08T01:36:16;25.98;;;13.55;;
24813;SDS011;12904;50.088;11.414;2024-03-08T01:38:44;26.58;;;14.73;;
24813;SDS011;12904;50.088;11.414;2024-03-08T01:41:10;31.63;;;14.35;;
24813;SDS011;12904;50.088;11.414;2024-03-08T01:43:38;29.40;;;14.70;;
24813;SDS011;12904;50.088;11.414;2024-03-08T01:46:04;25.13;;;13.75;;
24813;SDS011;12904;50.088;11.414;2024-03-08T01:48:30;32.25;;;15.25;;
24813;SDS011;12904;50.088;11.414;2024-03-08T01:50:57;25.75;;;14.65;;
24813;SDS011;12904;50.088;11.414;2024-03-08T01:53:26;24.67;;;15.10;;
24813;SDS011;12904;50.088;11.414;2024-03-08T01:55:54;28.20;;;15.20;;
24813;SDS011;12904;50.088;11.414;2024-03-08T01:58:22;31.10;;;15.73;;
24813;SDS011;12904;50.088;11.414;2024-03-08T02:00:48;24.95;;;13.52;;
24813;SDS011;12904;50.088;11.414;2024-03-08T02:03:17;26.10;;;14.93;;
24813;SDS011;12904;50.088;11.414;2024-03-08T02:05:43;32.00;;;14.00;;
24813;SDS011;12904;50.088;11.414;2024-03-08T02:08:09;28.00;;;14.90;;
24813;SDS011;12904;50.088;11.414;2024-03-08T02:10:39;24.48;;;13.23;;
24813;SDS011;12904;50.088;11.414;2024-03-08T02:13:06;31.60;;;15.18;;
24813;SDS011;12904;50.088;11.414;2024-03-08T02:15:52;29.23;;;14.65;;
24813;SDS011;12904;50.088;11.414;2024-03-08T02:18:21;31.02;;;15.75;;
24813;SDS011;12904;50.088;11.414;2024-03-08T02:23:18;31.10;;;15.30;;
24813;SDS011;12904;50.088;11.414;2024-03-08T02:25:44;26.88;;;14.02;;
24813;SDS011;12904;50.088;11.414;2024-03-08T02:28:10;28.13;;;14.18;;
24813;SDS011;12904;50.088;11.414;2024-03-08T02:30:37;27.05;;;13.68;;
24813;SDS011;12904;50.088;11.414;2024-03-08T02:33:03;30.42;;;15.10;;
24813;SDS011;12904;50.088;11.414;2024-03-08T02:35:34;29.38;;;15.07;;
24813;SDS011;12904;50.088;11.414;2024-03-08T02:38:00;31.63;;;15.27;;
24813;SDS011;12904;50.088;11.414;2024-03-08T02:40:26;31.55;;;15.40;;
24813;SDS011;12904;50.088;11.414;2024-03-08T02:42:52;35.28;;;15.85;;
24813;SDS011;12904;50.088;11.414;2024-03-08T02:45:18;25.15;;;14.85;;
24813;SDS011;12904;50.088;11.414;2024-03-08T02:47:43;36.15;;;16.08;;
24813;SDS011;12904;50.088;11.414;2024-03-08T02:50:09;26.58;;;15.32;;
24813;SDS011;12904;50.088;11.414;2024-03-08T02:52:35;33.60;;;15.45;;
24813;SDS011;12904;50.088;11.414;2024-03-08T02:55:04;34.40;;;16.55;;
24813;SDS011;12904;50.088;11.414;2024-03-08T02:57:33;30.85;;;15.68;;
24813;SDS011;12904;50.088;11.414;2024-03-08T02:59:58;23.10;;;14.27;;
24813;SDS011;12904;50.088;11.414;2024-03-08T03:02:27;35.20;;;15.40;;
24813;SDS011;12904;50.088;11.414;2024-03-08T03:04:52;26.92;;;13.77;;
24813;SDS011;12904;50.088;11.414;2024-03-08T03:07:20;27.95;;;14.23;;
24813;SDS011;12904;50.088;11.414;2024-03-08T03:09:46;25.55;;;13.68;;
24813;SDS011;12904;50.088;11.414;2024-03-08T03:12:12;24.67;;;13.82;;
24813;SDS011;12904;50.088;11.414;2024-03-08T03:14:39;26.50;;;14.73;;
24813;SDS011;12904;50.088;11.414;2024-03-08T03:17:04;25.23;;;13.80;;
24813;SDS011;12904;50.088;11.414;2024-03-08T03:19:30;35.15;;;16.20;;
24813;SDS011;12904;50.088;11.414;2024-03-08T03:21:56;29.25;;;15.45;;
24813;SDS011;12904;50.088;11.414;2024-03-08T03:24:22;30.23;;;15.30;;
24813;SDS011;12904;50.088;11.414;2024-03-08T03:26:48;36.50;;;15.98;;
24813;SDS011;12904;50.088;11.414;2024-03-08T03:29:14;36.63;;;16.23;;
24813;SDS011;12904;50.088;11.414;2024-03-08T03:31:42;31.67;;;16.33;;
24813;SDS011;12904;50.088;11.414;2024-03-08T03:34:10;30.63;;;15.70;;
24813;SDS011;12904;50.088;11.414;2024-03-08T03:36:37;35.67;;;17.23;;
24813;SDS011;12904;50.088;11.414;2024-03-08T03:39:07;32.78;;;15.95;;
24813;SDS011;12904;50.088;11.414;2024-03-08T03:41:37;32.70;;;15.45;;
24813;SDS011;12904;50.088;11.414;2024-03-08T03:44:04;38.78;;;16.10;;
24813;SDS011;12904;50.088;11.414;2024-03-08T03:46:33;32.15;;;15.25;;
24813;SDS011;12904;50.088;11.414;2024-03-08T03:48:59;33.03;;;15.60;;
24813;SDS011;12904;50.088;11.414;2024-03-08T03:51:25;34.80;;;16.05;;
24813;SDS011;12904;50.088;11.414;2024-03-08T03:53:51;29.00;;;14.50;;
24813;SDS011;12904;50.088;11.414;2024-03-08T03:56:18;36.53;;;17.80;;
24813;SDS011;12904;50.088;11.414;2024-03-08T03:58:44;42.83;;;16.63;;
24813;SDS011;12904;50.088;11.414;2024-03-08T04:01:09;39.42;;;18.25;;
24813;SDS011;12904;50.088;11.414;2024-03-08T04:03:35;32.35;;;17.00;;
24813;SDS011;12904;50.088;11.414;2024-03-08T04:06:01;44.78;;;18.48;;
24813;SDS011;12904;50.088;11.414;2024-03-08T04:08:29;39.92;;;18.00;;
24813;SDS011;12904;50.088;11.414;2024-03-08T04:10:55;39.90;;;19.10;;
24813;SDS011;12904;50.088;11.414;2024-03-08T04:13:20;45.05;;;19.73;;
24813;SDS011;12904;50.088;11.414;2024-03-08T04:15:46;43.35;;;18.17;;
24813;SDS011;12904;50.088;11.414;2024-03-08T04:18:15;32.80;;;17.38;;
24813;SDS011;12904;50.088;11.414;2024-03-08T04:20:40;38.92;;;18.58;;
24813;SDS011;12904;50.088;11.414;2024-03-08T04:23:06;42.55;;;19.33;;
24813;SDS011;12904;50.088;11.414;2024-03-08T04:25:32;38.72;;;17.52;;
24813;SDS011;12904;50.088;11.414;2024-03-08T04:27:58;35.35;;;16.77;;
24813;SDS011;12904;50.088;11.414;2024-03-08T04:30:23;40.90;;;17.88;;
24813;SDS011;12904;50.088;11.414;2024-03-08T04:32:49;37.47;;;17.17;;
24813;SDS011;12904;50.088;11.414;2024-03-08T04:35:15;31.33;;;15.90;;
24813;SDS011;12904;50.088;11.414;2024-03-08T04:37:41;33.80;;;15.65;;
24813;SDS011;12904;50.088;11.414;2024-03-08T04:40:07;29.58;;;15.27;;
24813;SDS011;12904;50.088;11.414;2024-03-08T04:42:33;35.08;;;16.35;;
24813;SDS011;12904;50.088;11.414;2024-03-08T04:44:59;33.03;;;15.68;;
24813;SDS011;12904;50.088;11.414;2024-03-08T04:47:25;39.45;;;16.33;;
24813;SDS011;12904;50.088;11.414;2024-03-08T04:49:51;38.65;;;17.83;;
24813;SDS011;12904;50.088;11.414;2024-03-08T04:52:17;36.83;;;17.08;;
24813;SDS011;12904;50.088;11.414;2024-03-08T04:54:43;43.42;;;19.08;;
24813;SDS011;12904;50.088;11.414;2024-03-08T04:57:09;40.80;;;18.88;;
24813;SDS011;12904;50.088;11.414;2024-03-08T04:59:36;44.13;;;19.00;;
24813;SDS011;12904;50.088;11.414;2024-03-08T05:02:02;51.58;;;21.83;;
24813;SDS011;12904;50.088;11.414;2024-03-08T05:04:27;51.72;;;22.38;;
24813;SDS011;12904;50.088;11.414;2024-03-08T05:06:54;47.65;;;21.10;;
24813;SDS011;12904;50.088;11.414;2024-03-08T05:09:20;47.13;;;23.23;;
24813;SDS011;12904;50.088;11.414;2024-03-08T05:11:46;58.22;;;23.38;;
24813;SDS011;12904;50.088;11.414;2024-03-08T05:14:12;58.17;;;24.65;;
24813;SDS011;12904;50.088;11.414;2024-03-08T05:16:44;54.83;;;24.45;;
24813;SDS011;12904;50.088;11.414;2024-03-08T05:19:13;55.85;;;23.38;;
24813;SDS011;12904;50.088;11.414;2024-03-08T05:21:41;56.65;;;22.98;;
24813;SDS011;12904;50.088;11.414;2024-03-08T05:24:08;57.58;;;22.80;;
24813;SDS011;12904;50.088;11.414;2024-03-08T05:26:35;52.40;;;21.35;;
24813;SDS011;12904;50.088;11.414;2024-03-08T05:29:02;47.65;;;21.88;;
24813;SDS011;12904;50.088;11.414;2024-03-08T05:31:28;55.42;;;20.98;;
24813;SDS011;12904;50.088;11.414;2024-03-08T05:33:56;56.45;;;20.33;;
24813;SDS011;12904;50.088;11.414;2024-03-08T05:36:21;54.30;;;22.95;;
24813;SDS011;12904;50.088;11.414;2024-03-08T05:38:47;52.22;;;23.42;;
24813;SDS011;12904;50.088;11.414;2024-03-08T05:41:15;54.97;;;23.35;;
24813;SDS011;12904;50.088;11.414;2024-03-08T05:43:41;60.88;;;24.52;;
24813;SDS011;12904;50.088;11.414;2024-03-08T05:46:07;61.28;;;24.02;;
24813;SDS011;12904;50.088;11.414;2024-03-08T05:48:33;61.47;;;24.80;;
24813;SDS011;12904;50.088;11.414;2024-03-08T05:51:00;60.50;;;25.15;;
24813;SDS011;12904;50.088;11.414;2024-03-08T05:53:26;62.63;;;24.40;;
24813;SDS011;12904;50.088;11.414;2024-03-08T05:55:52;57.42;;;23.38;;
24813;SDS011;12904;50.088;11.414;2024-03-08T05:58:19;57.65;;;24.73;;
24813;SDS011;12904;50.088;11.414;2024-03-08T06:00:44;60.72;;;25.30;;
24813;SDS011;12904;50.088;11.414;2024-03-08T06:03:11;68.55;;;26.55;;
24813;SDS011;12904;50.088;11.414;2024-03-08T06:05:36;65.90;;;25.63;;
24813;SDS011;12904;50.088;11.414;2024-03-08T06:08:02;63.10;;;24.30;;
24813;SDS011;12904;50.088;11.414;2024-03-08T06:10:29;64.18;;;28.17;;
24813;SDS011;12904;50.088;11.414;2024-03-08T06:12:55;74.72;;;29.58;;
24813;SDS011;12904;50.088;11.414;2024-03-08T06:15:20;67.68;;;27.20;;
24813;SDS011;12904;50.088;11.414;2024-03-08T06:17:46;69.75;;;24.60;;
24813;SDS011;12904;50.088;11.414;2024-03-08T06:20:12;59.78;;;26.48;;
24813;SDS011;12904;50.088;11.414;2024-03-08T06:22:38;64.53;;;26.42;;
24813;SDS011;12904;50.088;11.414;2024-03-08T06:25:07;66.72;;;26.73;;
24813;SDS011;12904;50.088;11.414;2024-03-08T06:27:33;68.95;;;25.98;;
24813;SDS011;12904;50.088;11.414;2024-03-08T06:30:02;68.32;;;26.10;;
24813;SDS011;12904;50.088;11.414;2024-03-08T06:32:29;62.47;;;25.02;;
24813;SDS011;12904;50.088;11.414;2024-03-08T06:34:55;61.80;;;24.40;;
24813;SDS011;12904;50.088;11.414;2024-03-08T06:37:21;68.38;;;27.13;;
24813;SDS011;12904;50.088;11.414;2024-03-08T06:39:48;56.25;;;24.35;;
24813;SDS011;12904;50.088;11.414;2024-03-08T06:42:17;51.65;;;24.20;;
24813;SDS011;12904;50.088;11.414;2024-03-08T06:44:42;57.20;;;24.27;;
24813;SDS011;12904;50.088;11.414;2024-03-08T06:47:14;60.40;;;24.10;;
24813;SDS011;12904;50.088;11.414;2024-03-08T06:49:41;48.83;;;21.98;;
24813;SDS011;12904;50.088;11.414;2024-03-08T06:52:08;49.67;;;22.38;;
24813;SDS011;12904;50.088;11.414;2024-03-08T06:54:34;48.58;;;21.42;;
24813;SDS011;12904;50.088;11.414;2024-03-08T06:57:04;48.22;;;21.98;;
24813;SDS011;12904;50.088;11.414;2024-03-08T06:59:30;50.78;;;23.92;;
24813;SDS011;12904;50.088;11.414;2024-03-08T07:02:01;51.40;;;21.10;;
24813;SDS011;12904;50.088;11.414;2024-03-08T07:04:27;46.78;;;21.85;;
24813;SDS011;12904;50.088;11.414;2024-03-08T07:06:55;49.08;;;22.95;;
24813;SDS011;12904;50.088;11.414;2024-03-08T07:09:22;43.03;;;21.25;;
24813;SDS011;12904;50.088;11.414;2024-03-08T07:11:49;52.75;;;22.10;;
24813;SDS011;12904;50.088;11.414;2024-03-08T07:14:20;47.38;;;22.08;;
24813;SDS011;12904;50.088;11.414;2024-03-08T07:16:48;41.00;;;21.13;;
24813;SDS011;12904;50.088;11.414;2024-03-08T07:19:15;42.45;;;21.10;;
24813;SDS011;12904;50.088;11.414;2024-03-08T07:21:41;38.15;;;20.13;;
24813;SDS011;12904;50.088;11.414;2024-03-08T07:24:10;49.78;;;20.90;;
24813;SDS011;12904;50.088;11.414;2024-03-08T07:26:42;44.88;;;20.83;;
24813;SDS011;12904;50.088;11.414;2024-03-08T07:29:08;39.13;;;19.65;;
24813;SDS011;12904;50.088;11.414;2024-03-08T07:31:34;53.40;;;22.00;;
24813;SDS011;12904;50.088;11.414;2024-03-08T07:34:15;38.63;;;18.88;;
24813;SDS011;12904;50.088;11.414;2024-03-08T07:36:41;41.88;;;21.33;;
24813;SDS011;12904;50.088;11.414;2024-03-08T07:39:07;51.38;;;21.75;;
24813;SDS011;12904;50.088;11.414;2024-03-08T07:41:39;47.63;;;20.05;;
24813;SDS011;12904;50.088;11.414;2024-03-08T07:44:06;39.35;;;19.65;;
24813;SDS011;12904;50.088;11.414;2024-03-08T07:46:32;35.45;;;18.73;;
24813;SDS011;12904;50.088;11.414;2024-03-08T07:48:59;40.92;;;19.38;;
24813;SDS011;12904;50.088;11.414;2024-03-08T07:51:25;41.38;;;18.33;;
24813;SDS011;12904;50.088;11.414;2024-03-08T07:53:50;40.17;;;19.10;;
24813;SDS011;12904;50.088;11.414;2024-03-08T07:56:16;39.92;;;20.48;;
24813;SDS011;12904;50.088;11.414;2024-03-08T07:58:43;39.05;;;19.05;;
24813;SDS011;12904;50.088;11.414;2024-03-08T08:01:27;41.55;;;19.58;;
24813;SDS011;12904;50.088;11.414;2024-03-08T08:03:53;36.65;;;19.35;;
24813;SDS011;12904;50.088;11.414;2024-03-08T08:06:19;41.50;;;21.05;;
24813;SDS011;12904;50.088;11.414;2024-03-08T08:08:44;41.28;;;19.70;;
24813;SDS011;12904;50.088;11.414;2024-03-08T08:11:10;42.55;;;20.70;;
24813;SDS011;12904;50.088;11.414;2024-03-08T08:13:40;38.97;;;19.50;;
24813;SDS011;12904;50.088;11.414;2024-03-08T08:16:08;42.58;;;20.80;;
24813;SDS011;12904;50.088;11.414;2024-03-08T08:18:34;46.78;;;20.55;;
24813;SDS011;12904;50.088;11.414;2024-03-08T08:21:00;39.45;;;18.67;;
24813;SDS011;12904;50.088;11.414;2024-03-08T08:23:26;40.25;;;18.73;;
24813;SDS011;12904;50.088;11.414;2024-03-08T08:25:52;39.88;;;19.70;;
24813;SDS011;12904;50.088;11.414;2024-03-08T08:28:17;34.50;;;18.58;;
24813;SDS011;12904;50.088;11.414;2024-03-08T08:30:46;40.03;;;19.13;;
24813;SDS011;12904;50.088;11.414;2024-03-08T08:33:12;38.17;;;18.52;;
24813;SDS011;12904;50.088;11.414;2024-03-08T08:35:38;41.28;;;19.33;;
24813;SDS011;12904;50.088;11.414;2024-03-08T08:38:06;37.65;;;18.52;;
24813;SDS011;12904;50.088;11.414;2024-03-08T08:40:35;31.00;;;16.17;;
24813;SDS011;12904;50.088;11.414;2024-03-08T08:43:03;28.40;;;16.42;;
24813;SDS011;12904;50.088;11.414;2024-03-08T08:45:32;37.13;;;16.63;;
24813;SDS011;12904;50.088;11.414;2024-03-08T08:47:58;25.17;;;15.80;;
24813;SDS011;12904;50.088;11.414;2024-03-08T08:50:27;26.95;;;15.55;;
24813;SDS011;12904;50.088;11.414;2024-03-08T08:52:53;32.55;;;16.92;;
24813;SDS011;12904;50.088;11.414;2024-03-08T08:55:19;28.98;;;15.45;;
24813;SDS011;12904;50.088;11.414;2024-03-08T08:57:51;31.08;;;16.63;;
24813;SDS011;12904;50.088;11.414;2024-03-08T09:00:18;30.40;;;16.33;;
24813;SDS011;12904;50.088;11.414;2024-03-08T09:02:45;27.73;;;14.93;;
24813;SDS011;12904;50.088;11.414;2024-03-08T09:05:12;30.45;;;16.77;;
24813;SDS011;12904;50.088;11.414;2024-03-08T09:07:39;25.02;;;14.70;;
24813;SDS011;12904;50.088;11.414;2024-03-08T09:10:05;23.42;;;14.25;;
24813;SDS011;12904;50.088;11.414;2024-03-08T09:12:31;27.48;;;15.45;;
24813;SDS011;12904;50.088;11.414;2024-03-08T09:14:57;26.75;;;15.18;;
24813;SDS011;12904;50.088;11.414;2024-03-08T09:17:24;25.25;;;14.75;;
24813;SDS011;12904;50.088;11.414;2024-03-08T09:19:50;29.23;;;15.45;;
24813;SDS011;12904;50.088;11.414;2024-03-08T09:22:16;23.73;;;15.23;;
24813;SDS011;12904;50.088;11.414;2024-03-08T09:24:43;23.10;;;14.27;;
24813;SDS011;12904;50.088;11.414;2024-03-08T09:27:08;20.20;;;13.18;;
24813;SDS011;12904;50.088;11.414;2024-03-08T09:29:38;18.75;;;13.52;;
24813;SDS011;12904;50.088;11.414;2024-03-08T09:32:04;21.08;;;13.88;;
24813;SDS011;12904;50.088;11.414;2024-03-08T09:34:30;20.88;;;13.73;;
24813;SDS011;12904;50.088;11.414;2024-03-08T09:36:55;19.02;;;13.52;;
24813;SDS011;12904;50.088;11.414;2024-03-08T09:39:21;19.52;;;13.95;;
24813;SDS011;12904;50.088;11.414;2024-03-08T09:41:47;16.55;;;13.18;;
24813;SDS011;12904;50.088;11.414;2024-03-08T09:44:13;14.77;;;11.65;;
24813;SDS011;12904;50.088;11.414;2024-03-08T09:46:40;15.85;;;12.32;;
24813;SDS011;12904;50.088;11.414;2024-03-08T09:49:06;13.32;;;11.00;;
24813;SDS011;12904;50.088;11.414;2024-03-08T09:51:33;13.73;;;11.93;;
24813;SDS011;12904;50.088;11.414;2024-03-08T09:54:03;14.90;;;11.40;;
24813;SDS011;12904;50.088;11.414;2024-03-08T09:56:30;13.27;;;11.90;;
24813;SDS011;12904;50.088;11.414;2024-03-08T09:58:58;12.50;;;11.30;;
24813;SDS011;12904;50.088;11.414;2024-03-08T10:01:33;13.57;;;11.23;;
24813;SDS011;12904;50.088;11.414;2024-03-08T10:03:59;12.55;;;10.82;;
24813;SDS011;12904;50.088;11.414;2024-03-08T10:06:24;12.40;;;11.10;;
24813;SDS011;12904;50.088;11.414;2024-03-08T10:08:50;16.25;;;12.10;;
24813;SDS011;12904;50.088;11.414;2024-03-08T10:11:20;12.70;;;11.23;;
24813;SDS011;12904;50.088;11.414;2024-03-08T10:13:47;13.23;;;11.45;;
24813;SDS011;12904;50.088;11.414;2024-03-08T10:16:13;15.10;;;11.68;;
24813;SDS011;12904;50.088;11.414;2024-03-08T10:18:39;12.40;;;11.15;;
24813;SDS011;12904;50.088;11.414;2024-03-08T10:21:06;11.95;;;10.30;;
24813;SDS011;12904;50.088;11.414;2024-03-08T10:23:35;12.23;;;10.82;;
24813;SDS011;12904;50.088;11.414;2024-03-08T10:26:10;11.18;;;10.07;;
24813;SDS011;12904;50.088;11.414;2024-03-08T10:28:47;12.40;;;10.52;;
24813;SDS011;12904;50.088;11.414;2024-03-08T10:31:13;12.48;;;11.10;;
24813;SDS011;12904;50.088;11.414;2024-03-08T10:33:43;11.98;;;10.77;;
24813;SDS011;12904;50.088;11.414;2024-03-08T10:36:09;12.25;;;11.10;;
24813;SDS011;12904;50.088;11.414;2024-03-08T10:38:39;11.82;;;10.65;;
24813;SDS011;12904;50.088;11.414;2024-03-08T10:41:12;11.32;;;10.15;;
24813;SDS011;12904;50.088;11.414;2024-03-08T10:46:20;11.68;;;10.48;;
24813;SDS011;12904;50.088;11.414;2024-03-08T10:48:55;12.38;;;10.65;;
24813;SDS011;12904;50.088;11.414;2024-03-08T10:51:23;12.48;;;11.23;;
24813;SDS011;12904;50.088;11.414;2024-03-08T10:53:50;12.35;;;11.02;;
24813;SDS011;12904;50.088;11.414;2024-03-08T10:56:17;12.00;;;10.80;;
24813;SDS011;12904;50.088;11.414;2024-03-08T10:58:43;11.55;;;10.35;;
24813;SDS011;12904;50.088;11.414;2024-03-08T11:01:10;12.10;;;10.88;;
24813;SDS011;12904;50.088;11.414;2024-03-08T11:06:15;13.40;;;11.30;;
24813;SDS011;12904;50.088;11.414;2024-03-08T11:08:41;12.98;;;11.32;;
24813;SDS011;12904;50.088;11.414;2024-03-08T11:13:59;11.38;;;9.75;;
24813;SDS011;12904;50.088;11.414;2024-03-08T11:18:59;13.38;;;11.18;;
24813;SDS011;12904;50.088;11.414;2024-03-08T11:21:35;11.93;;;9.85;;
24813;SDS011;12904;50.088;11.414;2024-03-08T11:24:08;13.13;;;11.32;;
24813;SDS011;12904;50.088;11.414;2024-03-08T11:26:37;11.93;;;9.95;;
24813;SDS011;12904;50.088;11.414;2024-03-08T11:32:18;10.40;;;9.18;;
24813;SDS011;12904;50.088;11.414;2024-03-08T11:34:47;11.65;;;9.55;;
24813;SDS011;12904;50.088;11.414;2024-03-08T11:37:15;14.60;;;10.27;;
24813;SDS011;12904;50.088;11.414;2024-03-08T11:39:52;10.75;;;9.52;;
24813;SDS011;12904;50.088;11.414;2024-03-08T11:42:23;12.32;;;9.93;;
24813;SDS011;12904;50.088;11.414;2024-03-08T11:44:51;10.88;;;9.73;;
24813;SDS011;12904;50.088;11.414;2024-03-08T11:47:18;11.35;;;9.52;;
24813;SDS011;12904;50.088;11.414;2024-03-08T11:49:44;11.88;;;9.35;;
24813;SDS011;12904;50.088;11.414;2024-03-08T11:52:13;12.02;;;9.80;;
24813;SDS011;12904;50.088;11.414;2024-03-08T11:54:40;11.88;;;9.70;;
24813;SDS011;12904;50.088;11.414;2024-03-08T11:57:06;9.60;;;8.30;;
24813;SDS011;12904;50.088;11.414;2024-03-08T11:59:34;10.88;;;8.88;;
24813;SDS011;12904;50.088;11.414;2024-03-08T12:02:01;9.98;;;8.65;;
24813;SDS011;12904;50.088;11.414;2024-03-08T12:04:30;11.70;;;9.30;;
24813;SDS011;12904;50.088;11.414;2024-03-08T12:06:59;10.88;;;9.02;;
24813;SDS011;12904;50.088;11.414;2024-03-08T12:09:33;10.70;;;9.10;;
24813;SDS011;12904;50.088;11.414;2024-03-08T12:12:02;9.85;;;7.72;;
24813;SDS011;12904;50.088;11.414;2024-03-08T12:14:32;13.57;;;10.13;;
24813;SDS011;12904;50.088;11.414;2024-03-08T12:16:58;10.13;;;8.40;;
24813;SDS011;12904;50.088;11.414;2024-03-08T12:19:26;9.52;;;7.80;;
24813;SDS011;12904;50.088;11.414;2024-03-08T12:21:53;10.40;;;8.55;;
24813;SDS011;12904;50.088;11.414;2024-03-08T12:24:19;9.75;;;8.70;;
24813;SDS011;12904;50.088;11.414;2024-03-08T12:26:46;8.02;;;7.15;;
24813;SDS011;12904;50.088;11.414;2024-03-08T12:29:25;9.20;;;7.22;;
24813;SDS011;12904;50.088;11.414;2024-03-08T12:31:56;8.85;;;7.93;;
24813;SDS011;12904;50.088;11.414;2024-03-08T12:34:26;9.40;;;7.60;;
24813;SDS011;12904;50.088;11.414;2024-03-08T12:36:53;8.20;;;7.00;;
24813;SDS011;12904;50.088;11.414;2024-03-08T12:39:20;8.32;;;7.38;;
24813;SDS011;12904;50.088;11.414;2024-03-08T12:41:55;7.95;;;6.95;;
24813;SDS011;12904;50.088;11.414;2024-03-08T12:44:27;7.88;;;7.07;;
24813;SDS011;12904;50.088;11.414;2024-03-08T12:46:53;9.10;;;7.13;;
24813;SDS011;12904;50.088;11.414;2024-03-08T12:49:19;9.50;;;7.05;;
24813;SDS011;12904;50.088;11.414;2024-03-08T12:51:47;7.22;;;5.80;;
24813;SDS011;12904;50.088;11.414;2024-03-08T12:54:13;8.65;;;7.10;;
24813;SDS011;12904;50.088;11.414;2024-03-08T12:56:39;8.50;;;6.93;;
24813;SDS011;12904;50.088;11.414;2024-03-08T12:59:06;7.25;;;6.45;;
24813;SDS011;12904;50.088;11.414;2024-03-08T13:01:33;9.10;;;6.20;;
24813;SDS011;12904;50.088;11.414;2024-03-08T13:04:02;8.45;;;6.63;;
24813;SDS011;12904;50.088;11.414;2024-03-08T13:06:29;6.05;;;5.43;;
24813;SDS011;12904;50.088;11.414;2024-03-08T13:08:55;6.95;;;5.72;;
24813;SDS011;12904;50.088;11.414;2024-03-08T13:11:22;7.97;;;6.28;;
24813;SDS011;12904;50.088;11.414;2024-03-08T13:13:49;7.07;;;5.78;;
24813;SDS011;12904;50.088;11.414;2024-03-08T13:16:15;6.28;;;5.30;;
24813;SDS011;12904;50.088;11.414;2024-03-08T13:18:42;9.07;;;6.05;;
24813;SDS011;12904;50.088;11.414;2024-03-08T13:21:08;9.95;;;6.38;;
24813;SDS011;12904;50.088;11.414;2024-03-08T13:23:34;7.25;;;6.28;;
24813;SDS011;12904;50.088;11.414;2024-03-08T13:26:10;6.32;;;5.65;;
24813;SDS011;12904;50.088;11.414;2024-03-08T13:28:46;7.20;;;5.50;;
24813;SDS011;12904;50.088;11.414;2024-03-08T13:31:22;7.13;;;5.85;;
24813;SDS011;12904;50.088;11.414;2024-03-08T13:33:48;7.80;;;5.00;;
24813;SDS011;12904;50.088;11.414;2024-03-08T13:36:14;7.78;;;6.00;;
24813;SDS011;12904;50.088;11.414;2024-03-08T13:38:44;6.85;;;5.45;;
24813;SDS011;12904;50.088;11.414;2024-03-08T13:41:11;9.07;;;6.68;;
24813;SDS011;12904;50.088;11.414;2024-03-08T13:43:39;7.13;;;6.40;;
24813;SDS011;12904;50.088;11.414;2024-03-08T13:46:06;8.13;;;4.97;;
24813;SDS011;12904;50.088;11.414;2024-03-08T13:48:32;8.82;;;5.50;;
24813;SDS011;12904;50.088;11.414;2024-03-08T13:50:58;7.75;;;5.88;;
24813;SDS011;12904;50.088;11.414;2024-03-08T13:53:25;6.20;;;5.07;;
24813;SDS011;12904;50.088;11.414;2024-03-08T13:55:51;6.10;;;5.25;;
24813;SDS011;12904;50.088;11.414;2024-03-08T13:58:16;5.68;;;4.85;;
24813;SDS011;12904;50.088;11.414;2024-03-08T14:00:42;6.00;;;5.40;;
24813;SDS011;12904;50.088;11.414;2024-03-08T14:03:11;5.80;;;5.20;;
24813;SDS011;12904;50.088;11.414;2024-03-08T14:05:40;7.32;;;5.70;;
24813;SDS011;12904;50.088;11.414;2024-03-08T14:08:07;7.78;;;6.18;;
24813;SDS011;12904;50.088;11.414;2024-03-08T14:10:34;7.18;;;5.55;;
24813;SDS011;12904;50.088;11.414;2024-03-08T14:13:00;5.30;;;4.50;;
24813;SDS011;12904;50.088;11.414;2024-03-08T14:15:27;7.88;;;5.30;;
24813;SDS011;12904;50.088;11.414;2024-03-08T14:17:54;6.50;;;5.78;;
24813;SDS011;12904;50.088;11.414;2024-03-08T14:20:20;6.75;;;5.75;;
24813;SDS011;12904;50.088;11.414;2024-03-08T14:22:50;9.23;;;6.95;;
24813;SDS011;12904;50.088;11.414;2024-03-08T14:25:22;7.10;;;5.78;;
24813;SDS011;12904;50.088;11.414;2024-03-08T14:27:51;8.15;;;6.75;;
24813;SDS011;12904;50.088;11.414;2024-03-08T14:30:27;7.43;;;5.57;;